Thunder radar more information blitzortung!


Radar de pluja more information rain snow radar


Visita la nostra xarxa de llocs de meteo:

Template documentation
and downloads

And another site



No particular awareness of the weather is required.    There are no Weather-warnings

Pagina Historial Weather Underground text

Diari Resum Novembre 21, 2017 Unitats:  Mètric    Imperial   Tant
« Previous Dia
SegĂźent Dia »
Diari Setmana Mensual Anual Personalitzada
  Maxima: Minima: Media:
Temperatura: 19.1 °C 4.8 °C 12.6 °C
Punt de rosada: 6.9 °C -1.9 °C 2.6 °C
Humitat: 62 % 42 % 51 %
Wind Speed: 5.6 km/h 0.0 km/h 2.2 km/h
RĂ fegues de vent: 5.6 km/h - -
Vent:- - SSE
Pression baro: 1023.9 hPa 1018.8 hPa -
Precipitacions: 0.0 mm    
Historical Graphs
 
 
Dades de taula per Novembre 21, 2017
Temps Temperatura Punt de rosada Pression baro Vent Wind Speed RĂ fegues de vent Humitat Rainfall Rate (Hourly)
00:00 6.0 °C -1.2 °C 1020.9 hPa North 1.6 km/h 3.2 km/h 60 % 0.0 mm
00:03 7.0 °C -0.7 °C 1022.9 hPa NNE 1.9 km/h   58 % 0.0 mm
00:20 5.7 °C -1.4 °C 1021.9 hPa NNE 1.6 km/h 4.8 km/h 60 % 0.0 mm
00:30 5.8 °C -1.4 °C 1021.9 hPa North 1.6 km/h 4.8 km/h 60 % 0.0 mm
00:40 5.7 °C -1.2 °C 1020.9 hPa Calm   3.2 km/h 61 % 0.0 mm
00:50 5.3 °C -1.6 °C 1020.9 hPa Calm   1.6 km/h 61 % 0.0 mm
01:00 5.1 °C -1.8 °C 1021.9 hPa North 1.6 km/h 1.6 km/h 61 % 0.0 mm
01:10 5.0 °C -1.9 °C 1020.9 hPa NNE 1.6 km/h 3.2 km/h 61 % 0.0 mm
01:20 4.8 °C -1.9 °C 1020.9 hPa Calm   1.6 km/h 62 % 0.0 mm
01:50 4.8 °C -1.9 °C 1021.9 hPa Calm   3.2 km/h 62 % 0.0 mm
02:10 5.2 °C -1.5 °C 1020.9 hPa NW 1.6 km/h 3.2 km/h 62 % 0.0 mm
02:20 5.7 °C -1.0 °C 1020.9 hPa Calm   3.2 km/h 62 % 0.0 mm
02:30 6.1 °C -0.7 °C 1020.9 hPa North 1.6 km/h 3.2 km/h 62 % 0.0 mm
02:50 7.3 °C 0.3 °C 1021.9 hPa NNW 1.6 km/h 1.6 km/h 61 % 0.0 mm
03:00 8.1 °C 0.8 °C 1021.9 hPa Calm   1.6 km/h 60 % 0.0 mm
03:10 8.4 °C 0.8 °C 1021.9 hPa North 1.6 km/h 1.6 km/h 59 % 0.0 mm
03:20 9.0 °C 1.4 °C 1021.9 hPa North 1.6 km/h 1.6 km/h 59 % 0.0 mm
03:30 9.2 °C 1.3 °C 1021.9 hPa Calm   4.8 km/h 58 % 0.0 mm
03:40 9.7 °C 1.6 °C 1021.9 hPa NNE 1.6 km/h 3.2 km/h 57 % 0.0 mm
03:50 10.0 °C 1.9 °C 1021.9 hPa NNE 1.6 km/h 3.2 km/h 57 % 0.0 mm
04:00 10.4 °C 2.0 °C 1021.9 hPa NE 3.2 km/h 4.8 km/h 56 % 0.0 mm
04:30 11.3 °C 2.3 °C 1021.9 hPa NE 3.2 km/h 4.8 km/h 54 % 0.0 mm
10:38 12.0 °C 2.9 °C 1022.9 hPa NE 3.9 km/h 3.9 km/h 54 % 0.0 mm
10:39 12.0 °C 2.9 °C 1022.9 hPa NE 3.7 km/h 3.7 km/h 54 % 0.0 mm
10:44 12.1 °C 3.1 °C 1022.9 hPa NE 3.7 km/h 3.7 km/h 54 % 0.0 mm
10:54 12.3 °C 3.0 °C 1022.9 hPa South 3.7 km/h 3.7 km/h 53 % 0.0 mm
11:04 13.2 °C 3.8 °C 1022.9 hPa WSW 3.7 km/h 3.7 km/h 53 % 0.0 mm
11:09 13.4 °C 4.0 °C 1022.9 hPa NW 2.6 km/h 2.6 km/h 53 % 0.0 mm
11:14 13.2 °C 3.8 °C 1022.9 hPa NNE 1.9 km/h 1.9 km/h 53 % 0.0 mm
11:24 13.7 °C 4.0 °C 1022.9 hPa SSW 1.9 km/h   52 % 0.0 mm
11:29 13.9 °C 4.2 °C 1022.9 hPa WSW 3.7 km/h 3.7 km/h 52 % 0.0 mm
11:34 14.0 °C 4.3 °C 1023.9 hPa East 1.9 km/h 1.9 km/h 52 % 0.0 mm
11:44 14.1 °C 4.4 °C 1023.9 hPa ENE 5.6 km/h 5.6 km/h 52 % 0.0 mm
11:49 14.2 °C 4.5 °C 1023.9 hPa NE 3.7 km/h 3.7 km/h 52 % 0.0 mm
11:54 14.5 °C 4.8 °C 1023.9 hPa ENE 1.9 km/h 1.9 km/h 52 % 0.0 mm
11:59 14.7 °C 4.9 °C 1023.9 hPa NNE 3.7 km/h 3.7 km/h 52 % 0.0 mm
12:04 14.6 °C 4.8 °C 1023.9 hPa NE 3.7 km/h 4.2 km/h 52 % 0.0 mm
12:09 14.6 °C 4.6 °C 1023.9 hPa NNE 5.6 km/h 5.6 km/h 51 % 0.0 mm
12:14 14.8 °C 4.8 °C 1023.9 hPa NNW 1.9 km/h 1.9 km/h 51 % 0.0 mm
12:19 15.2 °C 5.1 °C 1022.9 hPa ENE 3.7 km/h   51 % 0.0 mm
12:24 15.3 °C 5.2 °C 1022.9 hPa NE 3.7 km/h 3.7 km/h 51 % 0.0 mm
12:29 15.6 °C 5.5 °C 1022.9 hPa NE 3.7 km/h 3.7 km/h 51 % 0.0 mm
12:39 16.1 °C 5.9 °C 1022.9 hPa West 1.9 km/h 1.9 km/h 51 % 0.0 mm
12:44 16.6 °C 6.4 °C 1022.9 hPa ESE 3.7 km/h 3.7 km/h 51 % 0.0 mm
12:49 16.6 °C 6.1 °C 1022.9 hPa East 3.7 km/h 3.7 km/h 50 % 0.0 mm
12:54 16.5 °C 6.1 °C 1022.9 hPa ESE 2.6 km/h 2.6 km/h 50 % 0.0 mm
12:59 16.5 °C 6.1 °C 1022.9 hPa ENE 5.6 km/h 5.6 km/h 50 % 0.0 mm
13:04 16.8 °C 6.3 °C 1022.9 hPa East 4.2 km/h 4.2 km/h 50 % 0.0 mm
13:09 16.9 °C 6.4 °C 1022.9 hPa ESE 1.9 km/h   50 % 0.0 mm
13:14 16.9 °C 6.4 °C 1022.9 hPa ENE 3.9 km/h 3.9 km/h 50 % 0.0 mm
13:19 17.0 °C 6.2 °C 1021.9 hPa NNW 1.9 km/h   49 % 0.0 mm
13:24 17.1 °C 6.3 °C 1021.9 hPa NE 5.6 km/h 5.6 km/h 49 % 0.0 mm
13:27 17.1 °C 6.3 °C 1021.9 hPa NW 3.7 km/h 3.7 km/h 49 % 0.0 mm
13:30 17.1 °C 6.3 °C 1021.9 hPa Calm     49 % 0.0 mm
13:40 17.4 °C 6.6 °C 1021.9 hPa ENE 3.7 km/h 3.7 km/h 49 % 0.0 mm
13:45 17.5 °C 6.7 °C 1021.9 hPa East 3.7 km/h 3.7 km/h 49 % 0.0 mm
13:50 17.7 °C 6.8 °C 1021.9 hPa NNE 3.9 km/h 3.9 km/h 49 % 0.0 mm
14:00 17.8 °C 6.9 °C 1021.9 hPa ENE 3.7 km/h 3.7 km/h 49 % 0.0 mm
14:10 18.0 °C 6.8 °C 1021.9 hPa NE 3.7 km/h 3.7 km/h 48 % 0.0 mm
14:15 18.1 °C 6.9 °C 1021.9 hPa ENE 3.7 km/h 3.7 km/h 48 % 0.0 mm
14:20 18.1 °C 6.9 °C 1021.9 hPa NNW 3.7 km/h 3.7 km/h 48 % 0.0 mm
14:25 18.2 °C 6.7 °C 1021.9 hPa NNW 1.9 km/h 1.9 km/h 47 % 0.0 mm
14:30 18.2 °C 6.7 °C 1021.9 hPa ENE 3.7 km/h 3.7 km/h 47 % 0.0 mm
14:40 18.2 °C 6.4 °C 1021.9 hPa NE 1.9 km/h   46 % 0.0 mm
14:55 18.4 °C 6.2 °C 1021.9 hPa ESE 3.7 km/h 4.2 km/h 45 % 0.0 mm
15:00 18.5 °C 6.3 °C 1021.9 hPa ESE 4.2 km/h 4.2 km/h 45 % 0.0 mm
15:05 18.6 °C 6.4 °C 1020.9 hPa SE 5.6 km/h 5.6 km/h 45 % 0.0 mm
15:15 18.7 °C 6.5 °C 1020.9 hPa ENE 3.7 km/h 3.7 km/h 45 % 0.0 mm
15:30 18.9 °C 6.4 °C 1021.9 hPa East 3.9 km/h 3.9 km/h 44 % 0.0 mm
15:35 18.9 °C 6.4 °C 1021.9 hPa East 3.7 km/h 3.7 km/h 44 % 0.0 mm
15:40 19.0 °C 6.1 °C 1021.9 hPa East 3.7 km/h 3.7 km/h 43 % 0.0 mm
15:45 19.0 °C 6.1 °C 1021.9 hPa East 3.7 km/h 3.7 km/h 43 % 0.0 mm
15:50 19.1 °C 6.2 °C 1021.9 hPa East 1.9 km/h 2.3 km/h 43 % 0.0 mm
15:55 19.1 °C 6.2 °C 1021.9 hPa ENE 1.9 km/h   43 % 0.0 mm
16:05 19.0 °C 6.1 °C 1021.9 hPa Calm     43 % 0.0 mm
16:15 19.1 °C 5.9 °C 1021.9 hPa East 3.7 km/h 3.7 km/h 42 % 0.0 mm
16:20 19.0 °C 5.8 °C 1021.9 hPa East 3.9 km/h 3.9 km/h 42 % 0.0 mm
16:25 19.0 °C 5.8 °C 1021.9 hPa East 3.7 km/h 3.7 km/h 42 % 0.0 mm
16:30 19.0 °C 5.8 °C 1021.9 hPa East 1.9 km/h 1.9 km/h 42 % 0.0 mm
16:40 18.9 °C 6.1 °C 1021.9 hPa East 2.3 km/h 2.3 km/h 43 % 0.0 mm
16:45 18.8 °C 5.9 °C 1021.9 hPa Calm     43 % 0.0 mm
16:50 19.0 °C 6.1 °C 1021.9 hPa Calm     43 % 0.0 mm
16:55 19.0 °C 6.4 °C 1021.9 hPa SSW 1.9 km/h 1.9 km/h 44 % 0.0 mm
17:00 18.9 °C 6.7 °C 1021.9 hPa SSW 1.9 km/h 1.9 km/h 45 % 0.0 mm
17:05 18.8 °C 6.6 °C 1021.9 hPa SW 3.7 km/h 3.7 km/h 45 % 0.0 mm
17:10 18.5 °C 6.3 °C 1021.9 hPa SW 1.9 km/h 1.9 km/h 45 % 0.0 mm
17:15 18.2 °C 6.1 °C 1021.9 hPa SW 1.9 km/h 1.9 km/h 45 % 0.0 mm
17:20 17.8 °C 5.7 °C 1021.9 hPa SW 2.3 km/h 2.3 km/h 45 % 0.0 mm
17:25 17.5 °C 5.4 °C 1021.9 hPa SW 1.9 km/h   45 % 0.0 mm
17:30 17.1 °C 5.1 °C 1021.9 hPa SW 3.7 km/h 3.7 km/h 45 % 0.0 mm
17:35 16.9 °C 5.2 °C 1021.9 hPa Calm     46 % 0.0 mm
17:40 16.6 °C 4.9 °C 1021.9 hPa ENE 3.7 km/h 3.7 km/h 46 % 0.0 mm
17:45 16.4 °C 4.7 °C 1021.9 hPa Calm     46 % 0.0 mm
17:50 16.3 °C 4.7 °C 1021.9 hPa NNW 1.9 km/h 1.9 km/h 46 % 0.0 mm
17:55 16.2 °C 4.6 °C 1021.9 hPa Calm     46 % 0.0 mm
18:00 16.2 °C 4.6 °C 1021.9 hPa NNW 1.9 km/h 1.9 km/h 46 % 0.0 mm
18:05 16.0 °C 4.4 °C 1021.9 hPa NNW 2.3 km/h 2.3 km/h 46 % 0.0 mm
18:10 15.9 °C 4.3 °C 1021.9 hPa NNE 1.9 km/h 1.9 km/h 46 % 0.0 mm
18:15 15.0 °C 3.4 °C 1021.9 hPa WSW 2.3 km/h 2.3 km/h 46 % 0.0 mm
18:20 7.7 °C -0.8 °C 1019.9 hPa West 3.2 km/h 3.2 km/h 55 % 0.0 mm
18:25 14.4 °C 2.9 °C 1020.9 hPa SW 3.7 km/h 3.7 km/h 46 % 0.0 mm
18:30 14.1 °C 2.7 °C 1020.9 hPa West 2.3 km/h 2.3 km/h 46 % 0.0 mm
18:35 14.2 °C 2.7 °C 1021.9 hPa WSW 2.3 km/h 2.3 km/h 46 % 0.0 mm
18:40 14.2 °C 2.7 °C 1021.9 hPa West 3.2 km/h 3.2 km/h 46 % 0.0 mm
18:45 14.1 °C 2.7 °C 1021.9 hPa SW 3.9 km/h 3.9 km/h 46 % 0.0 mm
18:50 14.0 °C 2.6 °C 1021.9 hPa SW 3.5 km/h 3.5 km/h 46 % 0.0 mm
18:55 13.7 °C 2.3 °C 1021.9 hPa SW 3.7 km/h 3.7 km/h 46 % 0.0 mm
19:00 7.6 °C -0.9 °C 1019.9 hPa Calm   3.2 km/h 55 % 0.0 mm
19:10 13.4 °C 2.0 °C 1020.9 hPa West 1.9 km/h 2.3 km/h 46 % 0.0 mm
19:15 13.3 °C 1.9 °C 1020.9 hPa West 1.9 km/h   46 % 0.0 mm
19:20 7.6 °C -0.6 °C 1019.9 hPa West 1.6 km/h 1.6 km/h 56 % 0.0 mm
19:25 13.1 °C 1.7 °C 1021.9 hPa West 1.9 km/h   46 % 0.0 mm
19:30 13.0 °C 1.6 °C 1021.9 hPa West 2.6 km/h 2.6 km/h 46 % 0.0 mm
19:35 12.8 °C 1.4 °C 1021.9 hPa WNW 1.9 km/h 1.9 km/h 46 % 0.0 mm
19:40 7.1 °C -0.8 °C 1019.9 hPa Calm     57 % 0.0 mm
19:55 12.2 °C 0.9 °C 1020.9 hPa Calm     46 % 0.0 mm
20:00 12.2 °C 1.2 °C 1020.9 hPa NNW 2.3 km/h 2.3 km/h 47 % 0.0 mm
20:05 12.2 °C 1.2 °C 1020.9 hPa Calm     47 % 0.0 mm
20:10 11.8 °C 0.8 °C 1020.9 hPa West 1.9 km/h   47 % 0.0 mm
20:15 11.7 °C 0.7 °C 1020.9 hPa Calm     47 % 0.0 mm
20:20 6.7 °C -1.0 °C 1019.9 hPa WSW 1.6 km/h 3.2 km/h 58 % 0.0 mm
20:26 11.4 °C 0.5 °C 1020.9 hPa West 3.7 km/h 3.7 km/h 47 % 0.0 mm
20:30 11.5 °C 0.6 °C 1020.9 hPa SW 3.9 km/h 3.9 km/h 47 % 0.0 mm
20:35 11.4 °C 0.8 °C 1020.9 hPa SW 1.9 km/h 1.9 km/h 48 % 0.0 mm
20:50 6.8 °C -0.9 °C 1019.9 hPa Calm     58 % 0.0 mm
20:51 10.9 °C 0.3 °C 1020.9 hPa WSW 3.7 km/h 3.7 km/h 48 % 0.0 mm
21:00 10.8 °C 0.5 °C 1020.9 hPa Calm     49 % 0.0 mm
21:05 10.6 °C 0.3 °C 1020.9 hPa WSW 2.3 km/h 2.3 km/h 49 % 0.0 mm
21:06 10.6 °C 0.3 °C 1020.9 hPa WSW 3.5 km/h 3.5 km/h 49 % 0.0 mm
21:10 6.9 °C -0.6 °C 1018.8 hPa Calm     59 % 0.0 mm
21:11 10.4 °C 0.4 °C 1020.9 hPa WSW 3.7 km/h 3.7 km/h 50 % 0.0 mm
21:20 6.8 °C -0.7 °C 1018.8 hPa Calm   1.6 km/h 59 % 0.0 mm
21:30 6.9 °C -0.6 °C 1019.9 hPa Calm     59 % 0.0 mm
21:31 10.1 °C 0.4 °C 1019.9 hPa NNW 2.6 km/h 2.6 km/h 51 % 0.0 mm
21:40 6.5 °C -0.9 °C 1018.8 hPa North 1.6 km/h 3.2 km/h 59 % 0.0 mm
21:41 10.1 °C 0.4 °C 1019.9 hPa ENE 3.7 km/h 3.7 km/h 51 % 0.0 mm
21:46 10.0 °C 0.3 °C 1019.9 hPa WSW 3.9 km/h 3.9 km/h 51 % 0.0 mm
22:00 6.1 °C -1.3 °C 1018.8 hPa East 1.6 km/h 3.2 km/h 59 % 0.0 mm
22:06 9.5 °C 0.1 °C 1019.9 hPa ENE 1.9 km/h 1.9 km/h 52 % 0.0 mm
22:10 5.9 °C -1.3 °C 1018.8 hPa Calm   3.2 km/h 60 % 0.0 mm
22:11 9.4 °C 0.0 °C 1019.9 hPa Calm     52 % 0.0 mm
22:16 9.3 °C -0.1 °C 1019.9 hPa Calm     52 % 0.0 mm
22:20 5.6 °C -1.6 °C 1018.8 hPa SW 1.6 km/h 3.2 km/h 60 % 0.0 mm
22:21 9.2 °C -0.2 °C 1020.9 hPa ENE 1.9 km/h 1.9 km/h 52 % 0.0 mm
22:30 5.6 °C -1.3 °C 1018.8 hPa WSW 3.2 km/h 3.2 km/h 61 % 0.0 mm
22:31 9.1 °C 0.0 °C 1020.9 hPa Calm     53 % 0.0 mm
22:36 9.0 °C -0.1 °C 1020.9 hPa SW 4.2 km/h 4.2 km/h 53 % 0.0 mm
22:40 5.8 °C -1.4 °C 1018.8 hPa Calm   3.2 km/h 60 % 0.0 mm
22:41 9.0 °C -0.3 °C 1020.9 hPa WSW 2.3 km/h 2.6 km/h 52 % 0.0 mm
22:46 8.9 °C -0.2 °C 1020.9 hPa Calm     53 % 0.0 mm
22:51 8.8 °C -0.3 °C 1019.9 hPa Calm     53 % 0.0 mm
22:56 8.9 °C -0.2 °C 1019.9 hPa NNW 2.3 km/h   53 % 0.0 mm
23:00 5.8 °C -1.2 °C 1018.8 hPa Calm   1.6 km/h 61 % 0.0 mm
23:01 8.8 °C -0.3 °C 1019.9 hPa Calm     53 % 0.0 mm
23:06 8.6 °C -0.4 °C 1019.9 hPa Calm     53 % 0.0 mm
23:11 8.4 °C -0.6 °C 1019.9 hPa Calm     53 % 0.0 mm
23:20 5.6 °C -1.1 °C 1018.8 hPa North 3.2 km/h 3.2 km/h 62 % 0.0 mm
23:21 8.2 °C -0.6 °C 1019.9 hPa Calm     54 % 0.0 mm
23:26 8.2 °C -0.6 °C 1019.9 hPa North 3.2 km/h 3.2 km/h 54 % 0.0 mm
23:30 5.5 °C -1.2 °C 1018.8 hPa Calm   3.2 km/h 62 % 0.0 mm
23:31 8.2 °C -0.6 °C 1019.9 hPa NNE 2.3 km/h   54 % 0.0 mm
23:40 5.2 °C -1.5 °C 1018.8 hPa Calm     62 % 0.0 mm
23:41 8.3 °C -0.5 °C 1019.9 hPa Calm     54 % 0.0 mm
23:46 8.3 °C -0.2 °C 1019.9 hPa Calm     55 % 0.0 mm
Meteo Sesrovires
Elogis d' Weather Underground - 3.25 mb

Guio original per  Jim McMurry - jmcmurry@mwt.net Adaptat per a la plantilla per  Wim van der Kuil - Leuven-Template.eu

Trobareu la nostra informacio del temps tambe a:

Weather Underground

AWEKAS